الصفحة الرئيسية
METAR-TAF:

METAR-TAF

مطار :

كوكشيتو, كازاخستان

دائرة عرض: 53-19-48N, خط طول: 069-35-48E, ارتفاع: 270 متر

مراقبة الطقس الحالي

تاريخ ووقت الإصدار 10ساعات و 12 دقيقة قبل الساعة 11:30UTC
ريح 14 عقدة من الغرب
درجة الحرارة -9°درجة مئوية
الرطوبة 79%
ضغط 1036 hPa
الرؤية 10 كم أو أكثر
ملبد بالغيوم على ارتفاع 4500 قدم
انخفاض الانجراف الثلوج

METAR: UACK 181130Z 27007MPS 9999 DRSN OVC045 M09/M12 Q1036 R20/450240 NOSIG RMK QFE753/1004

زمن: 03:42 (21:42 UTC)

توقعات

تاريخ ووقت الإصدار 13ساعات و 42 دقيقة قبل الساعة 08:00UTC
التوقعات صالحة من18 الساعة 09 UTC إلى 18 الساعة 18 UTC
ريح 10 عقدة من الجنوب الغربي
الرؤية 10 كم أو أكثر
غيوم متفرقة على ارتفاع 1100 قدم
غيوم مفككة على ارتفاع 3300 قدم
مؤقت
من 18 الساعة 11 UTC إلى 18 الساعة 18 UTC
الرؤية: 2100 متر
غيوم متفرقة على ارتفاع 600 قدم
غشاء

TAF: UACK 180800Z 1809/1818 23005MPS 9999 SCT011 BKN033 TEMPO 1811/1818 2100 BR SCT006

أرصاد الطقس والتوقعات من أكثر من 4000 مطار (تقارير الطقس للمطار METAR والتنبؤ بالطقس بالمطارTAF).

المحطات المتاحة هي النقط الصفراء والحمراء على الخريطة.

حرك المؤشر فوق النقطة لمعرفة اسم المحطة.

ثم انقر لمعرفة أرصاد وتوقعات الطقس.

لتغيير الخارطة: اضغط على الأزرار الخضراء مع رمز الصليب الأسود للتكبير. على الزر الأخضر مع شرطة للتصغير، أو على الأسهم الخضراء للخرائط المجاورة.


METAR-TAF: